Terminal Aerodrome Forecast
Issued by NWS

Home | Current Version | Previous Version | Text Only | Print | Product List | Glossary On
Versions: 1 2 3 4 5 6 7 8 9 10 11 12 13 14 15 16 17 18 19 20 21 22 23 24 25 26 27 28 29 30 31 32 33
000
FTUS43 KDTX 050903 AAA
TAFYIP
TAF AMD
KYIP 050903Z 0509/0606 06008KT P6SM OVC120
     FM051200 08006KT 6SM -SHRA OVC060
     FM051600 09010KT 5SM SHRA OVC045
     FM052200 10007KT 4SM SHRA BR OVC025
     FM060300 11006KT 2SM BR OVC015=

USA.gov is the U.S. government's official web portal to all federal, state and local government web resources and services.